createdAt,value
2018-04-18T02:58:44.840Z,100536.59
2018-04-18T03:01:14.092Z,100539.42
2018-04-18T03:03:42.300Z,100536.86
2018-04-18T03:06:11.633Z,100541.73
2018-04-18T03:08:39.687Z,100546.20
2018-04-18T03:11:08.086Z,100542.76
2018-04-18T03:13:36.492Z,100547.67
2018-04-18T03:16:07.297Z,100552.88
2018-04-18T03:18:35.709Z,100553.39
2018-04-18T03:21:04.160Z,100548.95
2018-04-18T03:23:32.502Z,100558.48
2018-04-18T03:26:00.748Z,100558.48
2018-04-18T03:28:30.121Z,100560.25
2018-04-18T03:30:59.395Z,100554.97
2018-04-18T03:33:30.426Z,100557.61
2018-04-18T03:35:58.925Z,100558.85
2018-04-18T03:38:30.080Z,100558.12
2018-04-18T03:40:58.500Z,100561.23
2018-04-18T03:43:26.603Z,100564.86
2018-04-18T03:45:56.707Z,100572.37
2018-04-18T03:48:25.119Z,100576.84
2018-04-18T03:50:58.766Z,100575.12
2018-04-18T03:53:27.225Z,100571.60
2018-04-18T03:55:55.645Z,100572.95
2018-04-18T03:58:26.409Z,100572.52
2018-04-18T04:00:55.777Z,100574.34
2018-04-18T04:03:24.183Z,100576.95
2018-04-18T04:05:53.022Z,100581.45
2018-04-18T04:08:21.314Z,100572.73
2018-04-18T04:10:50.380Z,100584.16
2018-04-18T04:13:18.585Z,100588.66
2018-04-18T04:15:47.610Z,100590.42
2018-04-18T04:21:36.616Z,100597.45
2018-04-18T04:24:16.594Z,100594.01
2018-04-18T04:26:44.991Z,100591.77
2018-04-18T04:29:13.574Z,100598.73
2018-04-18T04:31:41.958Z,100602.59
2018-04-18T04:34:10.738Z,100600.73
2018-04-18T04:36:39.209Z,100610.74
2018-04-18T04:39:07.589Z,100607.48
2018-04-18T04:41:37.702Z,100605.48
2018-04-18T04:44:06.213Z,100617.58
2018-04-18T04:46:35.246Z,100609.27
2018-04-18T04:49:03.458Z,100606.80
2018-04-18T04:51:31.848Z,100612.70
2018-04-18T04:54:00.539Z,100618.87
2018-04-18T04:56:28.971Z,100628.07
2018-04-18T04:58:57.538Z,100626.13
2018-04-18T05:01:27.302Z,100626.47
2018-04-18T05:03:56.966Z,100634.20
2018-04-18T05:06:27.900Z,100635.45
2018-04-18T05:08:56.067Z,100637.54
2018-04-18T05:11:24.183Z,100635.16
2018-04-18T05:13:53.383Z,100638.45
2018-04-18T05:16:21.806Z,100638.16
2018-04-18T05:18:50.240Z,100650.29
2018-04-18T05:21:18.620Z,100647.02
2018-04-18T05:23:46.786Z,100651.70
2018-04-18T05:26:14.937Z,100651.19
2018-04-18T05:28:43.341Z,100654.92
2018-04-18T05:31:12.242Z,100656.05
2018-04-18T05:33:41.486Z,100659.77
2018-04-18T05:36:10.551Z,100660.01
2018-04-18T05:38:39.053Z,100653.28
2018-04-18T05:41:07.453Z,100666.91
2018-04-18T05:43:35.845Z,100670.63
2018-04-18T05:46:03.995Z,100669.41
2018-04-18T05:48:32.390Z,100674.20
2018-04-18T05:51:00.841Z,100676.86
2018-04-18T05:53:29.374Z,100678.80
2018-04-18T05:55:58.122Z,100690.67
2018-04-18T05:58:26.535Z,100684.23
2018-04-18T06:00:54.744Z,100689.34
2018-04-18T06:03:23.345Z,100690.63
2018-04-18T06:05:51.757Z,100686.39
2018-04-18T06:08:21.137Z,100659.42
2018-04-18T06:10:49.582Z,100691.02
2018-04-18T06:13:17.737Z,100684.52
2018-04-18T06:15:46.782Z,100692.77
2018-04-18T06:18:15.262Z,100696.02
2018-04-18T06:20:43.657Z,100698.30
2018-04-18T06:23:12.048Z,100693.91
2018-04-18T06:25:40.489Z,100697.64
2018-04-18T06:28:08.909Z,100695.99
2018-04-18T06:30:39.469Z,100700.91
2018-04-18T06:33:10.889Z,100694.67
2018-04-18T06:35:39.351Z,100701.45
2018-04-18T06:38:08.071Z,100707.22
2018-04-18T06:40:36.253Z,100704.72
2018-04-18T06:43:04.722Z,100699.11
2018-04-18T06:45:33.482Z,100702.66
2018-04-18T06:48:01.914Z,100708.89
2018-04-18T06:50:30.298Z,100707.52
2018-04-18T06:52:58.718Z,100709.58
2018-04-18T06:55:28.685Z,100708.13
2018-04-18T06:57:57.793Z,100712.36
2018-04-18T07:00:26.236Z,100707.13
2018-04-18T07:02:54.636Z,100708.80
2018-04-18T07:05:23.009Z,100714.25
2018-04-18T07:07:51.401Z,100706.62
2018-04-18T07:10:19.825Z,100707.38
2018-04-18T07:12:48.003Z,100710.48
2018-04-18T07:15:18.025Z,100714.94
2018-04-18T07:17:46.639Z,100715.95
2018-04-18T07:20:17.290Z,100689.66
2018-04-18T07:22:45.717Z,100723.05
2018-04-18T07:25:17.875Z,100723.34
2018-04-18T07:27:46.254Z,100723.28
2018-04-18T07:30:15.966Z,100721.69
2018-04-18T07:32:44.344Z,100726.64
2018-04-18T07:35:19.221Z,100722.99
2018-04-18T07:37:47.619Z,100726.10
2018-04-18T07:40:16.011Z,100728.41
2018-04-18T07:42:44.405Z,100728.55
2018-04-18T07:45:20.975Z,100733.58
2018-04-18T07:47:49.466Z,100728.55
2018-04-18T07:50:17.854Z,100702.90
2018-04-18T07:52:46.238Z,100727.91
2018-04-18T07:55:19.568Z,100722.17
2018-04-18T07:57:47.970Z,100721.19
2018-04-18T08:00:19.275Z,100720.00
2018-04-18T08:02:47.860Z,100724.39
2018-04-18T08:05:16.266Z,100718.13
2018-04-18T08:07:44.646Z,100658.33
2018-04-18T08:10:15.175Z,100735.63
2018-04-18T08:12:43.445Z,100727.53
2018-04-18T08:15:12.566Z,100724.52
2018-04-18T08:17:41.144Z,100722.16
2018-04-18T08:20:17.675Z,100727.80
2018-04-18T08:22:45.853Z,100728.06
2018-04-18T08:25:18.712Z,100734.05
2018-04-18T08:27:55.493Z,100721.58
2018-04-18T08:30:24.107Z,100731.26
2018-04-18T08:32:52.494Z,100715.05
2018-04-18T08:35:20.687Z,100724.09
2018-04-18T08:37:50.048Z,100731.83
2018-04-18T08:40:19.435Z,100725.31
2018-04-18T08:42:47.614Z,100702.73
2018-04-18T08:45:19.588Z,100718.88
2018-04-18T08:47:47.986Z,100697.59
2018-04-18T08:50:16.459Z,100731.73
2018-04-18T08:52:44.631Z,100723.62
2018-04-18T08:55:19.397Z,100734.52
2018-04-18T08:57:47.825Z,100732.16
2018-04-18T09:00:18.182Z,100733.81
2018-04-18T09:02:46.546Z,100732.37
2018-04-18T09:05:18.409Z,100693.94
2018-04-18T09:07:46.838Z,100732.13
2018-04-18T09:10:15.249Z,100729.08
2018-04-18T09:12:43.665Z,100732.88
2018-04-18T09:15:12.532Z,100725.91
2018-04-18T09:17:40.956Z,100728.16
2018-04-18T09:20:16.230Z,100723.98
2018-04-18T09:22:44.634Z,100679.08
2018-04-18T09:25:14.573Z,100705.27
2018-04-18T09:27:42.965Z,100724.95
2018-04-18T09:30:11.434Z,100732.58
2018-04-18T09:32:39.837Z,100726.80
2018-04-18T09:35:10.165Z,100725.26
2018-04-18T09:37:38.325Z,100728.63
2018-04-18T09:40:06.753Z,100722.91
2018-04-18T09:42:35.143Z,100717.17
2018-04-18T09:45:03.525Z,100725.63
2018-04-18T09:47:31.962Z,100713.94
2018-04-18T09:50:00.338Z,100719.21
2018-04-18T09:52:28.738Z,100722.47
2018-04-18T09:54:57.148Z,100715.59
2018-04-18T09:57:25.555Z,100713.66
2018-04-18T09:59:53.958Z,100715.02
2018-04-18T10:02:27.717Z,100719.58
2018-04-18T10:04:55.887Z,100711.14
2018-04-18T10:07:24.269Z,100701.95
2018-04-18T10:09:52.645Z,100704.47
2018-04-18T10:12:21.498Z,100698.59
2018-04-18T10:14:49.944Z,100709.71
2018-04-18T10:17:18.341Z,100709.94
2018-04-18T10:19:46.736Z,100703.34
2018-04-18T10:22:15.128Z,100701.84
2018-04-18T10:24:43.555Z,100707.87
2018-04-18T10:27:11.943Z,100706.59
2018-04-18T10:29:40.361Z,100702.87
2018-04-18T10:32:08.757Z,100702.76
2018-04-18T10:34:37.158Z,100695.59
2018-04-18T10:37:05.133Z,100698.81
2018-04-18T10:39:33.299Z,100695.05
2018-04-18T10:42:01.691Z,100692.65
2018-04-18T10:44:30.162Z,100694.67
2018-04-18T10:46:58.561Z,100679.83
2018-04-18T10:49:26.949Z,100678.42
2018-04-18T10:51:55.098Z,100674.36
2018-04-18T10:54:23.256Z,100641.73
2018-04-18T10:56:51.630Z,100676.09
2018-04-18T10:59:20.021Z,100675.14
2018-04-18T11:01:48.399Z,100675.00
2018-04-18T11:04:16.790Z,100675.33
2018-04-18T11:06:45.174Z,100668.28
2018-04-18T11:09:13.559Z,100653.64
2018-04-18T11:11:41.947Z,100664.66
2018-04-18T11:14:11.080Z,100670.97
2018-04-18T11:16:39.449Z,100653.94
2018-04-18T11:19:07.840Z,100662.85
2018-04-18T11:21:36.290Z,100648.00
2018-04-18T11:24:04.442Z,100653.63
2018-04-18T11:26:32.813Z,100651.65
2018-04-18T11:29:01.201Z,100633.95
2018-04-18T11:31:29.591Z,100651.30
2018-04-18T11:33:57.996Z,100647.70
2018-04-18T11:36:26.371Z,100650.76
2018-04-18T11:38:54.762Z,100639.03
2018-04-18T11:41:23.137Z,100637.88
2018-04-18T11:43:51.509Z,100647.88
2018-04-18T11:46:19.891Z,100639.88
2018-04-18T11:48:48.277Z,100639.12
2018-04-18T11:51:16.651Z,100638.75
2018-04-18T11:53:44.824Z,100638.75
2018-04-18T11:56:13.237Z,100644.14
2018-04-18T11:58:41.633Z,100643.80
2018-04-18T12:01:10.033Z,100635.66
2018-04-18T12:03:38.447Z,100636.27
2018-04-18T12:06:06.837Z,100636.81
2018-04-18T12:08:35.240Z,100628.89
2018-04-18T12:11:03.650Z,100631.20
2018-04-18T12:13:32.226Z,100627.22
2018-04-18T12:16:00.608Z,100625.23
2018-04-18T12:18:29.018Z,100618.57
2018-04-18T12:20:57.176Z,100618.84
2018-04-18T12:23:25.559Z,100611.28
2018-04-18T12:25:53.947Z,100610.83
2018-04-18T12:28:22.330Z,100591.67
2018-04-18T12:30:50.706Z,100605.01
2018-04-18T12:33:19.085Z,100605.47
2018-04-18T12:35:47.485Z,100613.25
2018-04-18T12:38:15.849Z,100605.83
2018-04-18T12:40:44.025Z,100598.73
2018-04-18T12:43:12.470Z,100595.31
2018-04-18T12:45:40.856Z,100597.42
2018-04-18T12:48:09.266Z,100599.45
2018-04-18T12:50:37.633Z,100595.31
2018-04-18T12:53:06.039Z,100592.52
2018-04-18T12:55:34.431Z,100579.19
2018-04-18T12:58:02.901Z,100578.95
2018-04-18T13:00:31.294Z,100595.80
2018-04-18T13:02:59.674Z,100593.48
2018-04-18T13:05:28.111Z,100578.41
2018-04-18T13:07:56.281Z,100587.58
2018-04-18T13:10:24.665Z,100572.67
2018-04-18T13:12:53.072Z,100579.02
2018-04-18T13:15:21.476Z,100572.78
2018-04-18T13:17:49.645Z,100561.84
2018-04-18T13:20:18.024Z,100563.72
2018-04-18T13:22:46.412Z,100566.07
2018-04-18T13:25:16.576Z,100567.11
2018-04-18T13:27:47.972Z,100571.64
2018-04-18T13:30:16.370Z,100568.14
2018-04-18T13:32:44.746Z,100547.00
2018-04-18T13:35:13.518Z,100568.84
2018-04-18T13:37:41.719Z,100553.02
2018-04-18T13:40:09.873Z,100555.42
2018-04-18T13:42:38.050Z,100547.97
2018-04-18T13:45:13.108Z,100550.27
2018-04-18T13:47:41.251Z,100548.70
2018-04-18T13:50:19.183Z,100542.55
2018-04-18T13:52:47.593Z,100548.30
2018-04-18T13:55:19.502Z,100543.88
2018-04-18T13:57:47.895Z,100543.88
2018-04-18T14:00:16.285Z,100504.77
2018-04-18T14:02:47.221Z,100532.07
2018-04-18T14:05:15.603Z,100549.37
2018-04-18T14:07:44.052Z,100547.83
2018-04-18T14:10:14.993Z,100548.97
2018-04-18T14:12:43.398Z,100537.34
2018-04-18T14:15:15.319Z,100538.08
2018-04-18T14:17:43.869Z,100529.94
2018-04-18T14:20:15.643Z,100507.48
2018-04-18T14:22:44.015Z,100543.73
2018-04-18T14:25:12.390Z,100501.14
2018-04-18T14:27:40.771Z,100544.20
2018-04-18T14:30:11.339Z,100453.78
2018-04-18T14:32:39.721Z,100541.70
2018-04-18T14:35:15.368Z,100456.17
2018-04-18T14:37:43.785Z,100537.44
2018-04-18T14:40:12.366Z,100521.52
2018-04-18T14:42:40.794Z,100531.99
2018-04-18T14:45:12.084Z,100535.70
2018-04-18T14:47:40.480Z,100537.48
2018-04-18T14:50:14.920Z,100530.11
2018-04-18T14:52:44.212Z,100534.59
2018-04-18T14:55:16.973Z,100540.86
2018-04-18T14:57:45.349Z,100523.86
2018-04-18T15:00:14.229Z,100533.82
2018-04-18T15:02:42.604Z,100527.73
2018-04-18T15:05:17.438Z,100532.83
2018-04-18T15:07:45.970Z,100533.16
2018-04-18T15:10:18.140Z,100531.57
2018-04-18T15:12:46.535Z,100530.93
2018-04-18T15:15:14.919Z,100528.37
2018-04-18T15:17:43.301Z,100516.88
2018-04-18T15:20:14.865Z,100529.08
2018-04-18T15:22:43.314Z,100510.89
2018-04-18T15:25:17.347Z,100510.08
2018-04-18T15:27:45.727Z,100518.69
2018-04-18T15:30:17.150Z,100518.95
2018-04-18T15:32:45.565Z,100512.85
2018-04-18T15:35:14.785Z,100517.70
2018-04-18T15:37:43.184Z,100518.04
2018-04-18T15:40:18.077Z,100517.38
2018-04-18T15:42:46.464Z,100522.25
2018-04-18T15:45:20.987Z,100522.28
2018-04-18T15:47:49.373Z,100523.62
2018-04-18T15:50:17.747Z,100513.29
2018-04-18T15:52:46.130Z,100513.83
2018-04-18T15:55:17.626Z,100511.52
2018-04-18T15:57:46.048Z,100516.64
2018-04-18T16:00:14.948Z,100510.94
2018-04-18T16:02:43.670Z,100515.17
2018-04-18T16:05:15.750Z,100510.00
2018-04-18T16:07:44.146Z,100512.06
2018-04-18T16:10:13.955Z,100513.60
2018-04-18T16:12:42.320Z,100511.89
2018-04-18T16:15:12.009Z,100510.12
2018-04-18T16:17:41.190Z,100503.65
2018-04-18T16:20:11.510Z,100508.39
2018-04-18T16:22:40.564Z,100505.72
2018-04-18T16:25:15.909Z,100470.91
2018-04-18T16:27:44.308Z,100506.45
2018-04-18T16:33:22.903Z,100502.20
2018-04-18T16:35:51.310Z,100503.04
2018-04-18T16:38:19.692Z,100498.55
2018-04-18T16:40:48.099Z,100504.28
2018-04-18T16:43:16.578Z,100507.57
2018-04-18T16:45:44.951Z,100494.53
2018-04-18T16:48:13.100Z,100500.47
2018-04-18T16:50:41.482Z,100495.98
2018-04-18T16:53:09.884Z,100497.25
2018-04-18T16:55:38.262Z,100500.95
2018-04-18T16:58:07.886Z,100500.63
2018-04-18T17:00:36.272Z,100504.55
2018-04-18T17:03:04.341Z,100506.09
2018-04-18T17:05:32.813Z,100508.41
2018-04-18T17:08:01.207Z,100503.95
2018-04-18T17:10:29.615Z,100505.97
2018-04-18T17:12:58.034Z,100504.56
2018-04-18T17:15:26.417Z,100491.52
2018-04-18T17:17:54.794Z,100497.39
2018-04-18T17:20:23.334Z,100502.41
2018-04-18T17:22:51.791Z,100501.58
2018-04-18T17:25:20.169Z,100507.05
2018-04-18T17:27:48.336Z,100500.91
2018-04-18T17:30:16.714Z,100504.13
2018-04-18T17:32:45.095Z,100500.64
2018-04-18T17:35:16.722Z,100504.66
2018-04-18T17:37:45.110Z,100507.11
2018-04-18T17:40:18.437Z,100534.44
2018-04-18T17:42:46.883Z,100508.44
2018-04-18T17:45:15.926Z,100506.86
2018-04-18T17:47:45.175Z,100517.75
2018-04-18T17:50:17.011Z,100521.96
2018-04-18T17:52:45.381Z,100518.17
2018-04-18T17:55:18.745Z,100516.35
2018-04-18T17:57:47.189Z,100514.55
2018-04-18T18:00:18.207Z,100404.72
2018-04-18T18:02:46.620Z,100517.78
2018-04-18T18:05:15.092Z,100523.76
2018-04-18T18:07:43.473Z,100517.63
2018-04-18T18:10:19.251Z,100515.74
2018-04-18T18:12:48.527Z,100518.37
2018-04-18T18:15:19.288Z,100498.02
2018-04-18T18:17:47.751Z,100515.88
2018-04-18T18:20:19.560Z,100511.64
2018-04-18T18:22:47.941Z,100529.77
2018-04-18T18:25:18.208Z,100531.23
2018-04-18T18:27:46.508Z,100530.88
2018-04-18T18:30:17.974Z,100535.22
2018-04-18T18:32:46.357Z,100530.50
2018-04-18T18:35:20.897Z,100510.39
2018-04-18T18:37:49.304Z,100535.69
2018-04-18T18:40:19.157Z,100543.55
2018-04-18T18:42:47.543Z,100544.70
2018-04-18T18:45:21.769Z,100547.80
2018-04-18T18:47:50.162Z,100549.41
2018-04-18T18:50:19.308Z,100476.63
2018-04-18T18:52:47.712Z,100553.89
2018-04-18T18:55:18.877Z,100557.03
2018-04-18T18:57:47.287Z,100557.61
2018-04-18T19:00:17.944Z,100560.08
2018-04-18T19:02:46.525Z,100560.38
2018-04-18T19:05:17.924Z,100511.28
2018-04-18T19:07:46.309Z,100569.94
2018-04-18T19:10:19.093Z,100461.95
2018-04-18T19:12:47.496Z,100540.49
2018-04-18T19:15:18.925Z,100519.94
2018-04-18T19:17:47.334Z,100563.23
2018-04-18T19:20:23.327Z,100558.31
2018-04-18T19:22:51.793Z,100558.23
2018-04-18T19:25:20.181Z,100553.02
2018-04-18T19:27:48.579Z,100554.61
2018-04-18T19:30:18.270Z,100552.75
2018-04-18T19:32:46.670Z,100550.03
2018-04-18T19:35:18.689Z,100544.91
2018-04-18T19:37:47.102Z,100549.50
2018-04-18T19:40:18.452Z,100555.22
2018-04-18T19:42:46.868Z,100548.38
2018-04-18T19:45:17.871Z,100547.07
2018-04-18T19:47:46.286Z,100546.56
2018-04-18T19:50:18.050Z,100548.27
2018-04-18T19:52:46.452Z,100548.80
2018-04-18T19:55:17.904Z,100547.86
2018-04-18T19:57:46.314Z,100545.23
2018-04-18T20:00:18.305Z,100548.64
2018-04-18T20:02:46.710Z,100549.84
2018-04-18T20:05:18.497Z,100550.08
2018-04-18T20:07:46.938Z,100553.75
2018-04-18T20:10:19.239Z,100561.09
2018-04-18T20:12:47.621Z,100549.44
2018-04-18T20:15:18.931Z,100551.84
2018-04-18T20:17:47.368Z,100555.35
2018-04-18T20:20:18.582Z,100554.44
2018-04-18T20:22:46.998Z,100549.88
2018-04-18T20:25:17.939Z,100514.71
2018-04-18T20:27:46.350Z,100550.48
2018-04-18T20:30:14.784Z,100549.59
2018-04-18T20:32:43.369Z,100554.68
2018-04-18T20:35:17.912Z,100554.44
2018-04-18T20:37:46.828Z,100546.01
2018-04-18T20:40:17.814Z,100546.82
2018-04-18T20:42:57.238Z,100554.30
2018-04-18T20:45:25.619Z,100552.81
2018-04-18T20:47:53.994Z,100551.42
2018-04-18T20:50:22.548Z,100557.05
2018-04-18T20:52:51.002Z,100558.62
2018-04-18T20:55:22.183Z,100552.33
2018-04-18T20:57:50.770Z,100554.27
2018-04-18T21:00:19.312Z,100537.88
2018-04-18T21:02:47.699Z,100550.58
2018-04-18T21:05:17.657Z,100554.56
2018-04-18T21:07:46.063Z,100543.61
2018-04-18T21:10:17.620Z,100537.38
2018-04-18T21:12:46.003Z,100541.59
2018-04-18T21:15:16.553Z,100545.47
2018-04-18T21:17:44.929Z,100546.31
2018-04-18T21:20:16.582Z,100551.74
2018-04-18T21:22:44.985Z,100555.08
2018-04-18T21:25:14.057Z,100554.19
2018-04-18T21:27:42.536Z,100547.21
2018-04-18T21:30:15.796Z,100546.16
2018-04-18T21:32:44.207Z,100559.19
2018-04-18T21:35:12.594Z,100475.50
2018-04-18T21:37:40.989Z,100559.97
2018-04-18T21:40:18.173Z,100493.69
2018-04-18T21:42:46.321Z,100555.83
2018-04-18T21:45:18.736Z,100487.84
2018-04-18T21:47:47.124Z,100562.91
2018-04-18T21:50:18.734Z,100560.99
2018-04-18T21:52:47.105Z,100542.86
2018-04-18T21:55:18.585Z,100568.23
2018-04-18T21:57:46.975Z,100554.95
2018-04-18T22:00:18.733Z,100563.48
2018-04-18T22:02:47.970Z,100576.52
2018-04-18T22:05:30.089Z,100510.84
2018-04-18T22:07:58.390Z,100583.29
2018-04-18T22:10:26.914Z,100552.70
2018-04-18T22:12:55.280Z,100589.25
2018-04-18T22:15:24.523Z,100587.03
2018-04-18T22:17:52.912Z,100584.44
2018-04-18T22:20:21.384Z,100598.50
2018-04-18T22:22:49.823Z,100591.53
2018-04-18T22:25:18.535Z,100599.75
2018-04-18T22:27:46.964Z,100591.03
2018-04-18T22:30:17.411Z,100585.70
2018-04-18T22:32:45.832Z,100588.03
2018-04-18T22:35:17.526Z,100594.01
2018-04-18T22:37:45.903Z,100593.11
2018-04-18T22:40:19.019Z,100596.37
2018-04-18T22:42:47.398Z,100549.41
2018-04-18T22:45:17.847Z,100483.95
2018-04-18T22:47:46.223Z,100603.36
2018-04-18T22:50:18.560Z,100598.50
2018-04-18T22:52:46.695Z,100599.15
2018-04-18T22:55:18.678Z,100598.80
2018-04-18T22:57:47.053Z,100594.93
2018-04-18T23:00:21.948Z,100605.16
2018-04-18T23:02:50.532Z,100599.56
2018-04-18T23:05:20.190Z,100604.55
2018-04-18T23:07:48.565Z,100600.66
2018-04-18T23:10:18.216Z,100611.28
2018-04-18T23:12:46.621Z,100617.64
2018-04-18T23:15:16.901Z,100613.70
2018-04-18T23:17:45.276Z,100555.69
2018-04-18T23:20:18.641Z,100610.28
2018-04-18T23:22:47.188Z,100607.97
2018-04-18T23:25:18.295Z,100608.88
2018-04-18T23:27:46.878Z,100610.59
2018-04-18T23:30:15.285Z,100601.01
2018-04-18T23:32:43.685Z,100607.19
2018-04-18T23:35:17.833Z,100601.87
2018-04-18T23:37:46.417Z,100601.14
2018-04-18T23:40:14.806Z,100540.78
2018-04-18T23:42:43.247Z,100604.94
2018-04-18T23:45:18.144Z,100603.77
2018-04-18T23:47:46.554Z,100604.27
2018-04-18T23:50:18.377Z,100606.76
2018-04-18T23:52:46.545Z,100597.37
2018-04-18T23:55:14.916Z,100605.59
2018-04-18T23:57:43.321Z,100597.23
